createdAt,value
2019-01-19T00:02:01.545Z,92.93
2019-01-19T00:05:14.750Z,90.93
2019-01-19T00:08:13.229Z,88.80
2019-01-19T00:11:13.551Z,89.83
2019-01-19T00:14:32.583Z,88.43
2019-01-19T00:17:26.144Z,85.60
2019-01-19T00:20:41.852Z,85.13
2019-01-19T00:23:36.566Z,82.37
2019-01-19T00:27:00.515Z,81.50
2019-01-19T00:30:11.379Z,80.27
2019-01-19T00:32:51.340Z,79.90
2019-01-19T00:35:55.697Z,79.23
2019-01-19T00:38:59.845Z,78.00
2019-01-19T00:41:57.680Z,76.37
2019-01-19T00:44:57.988Z,76.67
2019-01-19T00:47:36.910Z,74.33
2019-01-19T00:50:31.742Z,73.77
2019-01-19T00:53:11.010Z,73.37
2019-01-19T00:56:12.758Z,72.50
2019-01-19T00:58:53.085Z,70.40
2019-01-19T01:02:02.815Z,67.83
2019-01-19T01:05:02.524Z,67.20
2019-01-19T01:07:59.029Z,68.73
2019-01-19T01:10:42.145Z,65.03
2019-01-19T01:13:31.992Z,66.67
2019-01-19T01:16:38.694Z,63.87
2019-01-19T01:19:25.101Z,62.63
2019-01-19T01:22:26.430Z,63.17
2019-01-19T01:25:42.725Z,60.90
2019-01-19T01:28:49.354Z,60.67
2019-01-19T01:31:41.264Z,57.87
2019-01-19T01:34:45.362Z,59.43
2019-01-19T01:37:47.354Z,56.67
2019-01-19T01:41:03.380Z,55.67
2019-01-19T01:44:04.557Z,53.87
2019-01-19T01:47:22.949Z,53.57
2019-01-19T01:50:13.780Z,54.93
2019-01-19T01:53:35.485Z,52.37
2019-01-19T01:56:08.551Z,52.30
2019-01-19T01:58:59.811Z,52.67
2019-01-19T02:01:55.440Z,50.20
2019-01-19T02:05:06.581Z,51.53
2019-01-19T02:08:18.189Z,49.77
2019-01-19T02:11:42.693Z,48.73
2019-01-19T02:14:45.160Z,48.67
2019-01-19T02:17:53.210Z,46.63
2019-01-19T02:20:37.676Z,47.77
2019-01-19T02:23:35.057Z,47.60
2019-01-19T02:26:29.598Z,46.27
2019-01-19T02:29:28.244Z,45.00
2019-01-19T02:32:40.990Z,44.27
2019-01-19T02:35:48.614Z,44.00
2019-01-19T02:38:54.267Z,43.90
2019-01-19T02:42:00.392Z,41.90
2019-01-19T02:45:15.994Z,40.97
2019-01-19T02:48:25.970Z,39.73
2019-01-19T02:51:08.109Z,39.57
2019-01-19T02:54:16.435Z,40.90
2019-01-19T02:57:02.256Z,40.00
2019-01-19T03:00:09.708Z,38.30
2019-01-19T03:02:54.207Z,36.40
2019-01-19T03:05:33.649Z,38.33
2019-01-19T03:08:34.436Z,37.60
2019-01-19T03:11:26.195Z,36.97
2019-01-19T03:14:37.394Z,36.33
2019-01-19T03:17:33.178Z,35.80
2019-01-19T03:20:42.554Z,34.50
2019-01-19T03:23:45.132Z,34.77
2019-01-19T03:26:51.064Z,34.83
2019-01-19T03:30:12.439Z,32.93
2019-01-19T03:33:22.956Z,33.10
2019-01-19T03:36:43.691Z,32.13
2019-01-19T03:39:31.921Z,32.37
2019-01-19T03:42:31.130Z,31.50
2019-01-19T03:45:10.580Z,31.53
2019-01-19T03:48:35.331Z,31.30
2019-01-19T03:51:16.868Z,29.70
2019-01-19T03:54:07.404Z,30.40
2019-01-19T03:57:15.128Z,29.70
2019-01-19T04:00:27.247Z,28.87
2019-01-19T04:03:21.526Z,29.13
2019-01-19T04:06:29.335Z,28.00
2019-01-19T04:09:43.178Z,27.50
2019-01-19T04:12:36.982Z,27.20
2019-01-19T04:15:36.417Z,26.97
2019-01-19T04:18:30.391Z,25.57
2019-01-19T04:21:45.862Z,26.37
2019-01-19T04:24:20.471Z,25.70
2019-01-19T04:26:52.313Z,25.97
2019-01-19T04:29:19.872Z,25.20
2019-01-19T04:31:47.433Z,25.13
2019-01-19T04:34:15.228Z,24.17
2019-01-19T04:36:42.962Z,24.53
2019-01-19T04:39:11.494Z,22.90
2019-01-19T04:41:39.578Z,23.17
2019-01-19T04:44:07.118Z,22.93
2019-01-19T04:46:34.592Z,21.83
2019-01-19T04:49:02.245Z,23.63
2019-01-19T04:51:29.869Z,22.90
2019-01-19T04:53:57.350Z,21.60
2019-01-19T04:56:24.907Z,21.57
2019-01-19T04:58:52.530Z,22.57
2019-01-19T05:01:20.123Z,20.10
2019-01-19T05:03:47.637Z,21.23
2019-01-19T05:06:15.209Z,21.03
2019-01-19T05:08:42.715Z,20.77
2019-01-19T05:11:10.180Z,20.13
2019-01-19T05:13:37.706Z,20.17
2019-01-19T05:16:05.453Z,19.87
2019-01-19T05:18:33.052Z,19.83
2019-01-19T05:21:00.768Z,19.03
2019-01-19T05:23:28.849Z,19.30
2019-01-19T05:25:56.378Z,19.23
2019-01-19T05:28:23.692Z,19.27
2019-01-19T05:30:51.307Z,17.50
2019-01-19T05:33:18.827Z,18.30
2019-01-19T05:35:46.185Z,17.27
2019-01-19T05:38:13.687Z,17.63
2019-01-19T05:40:41.159Z,18.13
2019-01-19T05:43:08.598Z,18.70
2019-01-19T05:45:35.954Z,16.80
2019-01-19T05:48:03.578Z,15.47
2019-01-19T05:50:31.138Z,16.67
2019-01-19T05:52:58.681Z,16.30
2019-01-19T05:55:26.067Z,17.30
2019-01-19T05:57:53.521Z,17.20
2019-01-19T06:00:27.320Z,15.97
2019-01-19T06:02:54.879Z,15.50
2019-01-19T06:05:22.415Z,15.27
2019-01-19T06:07:49.857Z,14.17
2019-01-19T06:10:17.393Z,15.00
2019-01-19T06:12:44.968Z,14.17
2019-01-19T06:15:13.381Z,14.20
2019-01-19T06:17:41.636Z,14.73
2019-01-19T06:20:10.704Z,13.73
2019-01-19T06:22:38.686Z,15.07
2019-01-19T06:25:07.222Z,13.97
2019-01-19T06:27:34.710Z,13.17
2019-01-19T06:30:02.447Z,13.10
2019-01-19T06:32:30.683Z,13.00
2019-01-19T06:34:58.347Z,13.07
2019-01-19T06:37:25.580Z,12.87
2019-01-19T06:39:53.137Z,13.10
2019-01-19T06:42:20.579Z,12.67
2019-01-19T06:44:48.589Z,12.00
2019-01-19T06:47:16.009Z,12.90
2019-01-19T06:49:43.512Z,12.27
2019-01-19T06:52:11.122Z,12.33
2019-01-19T06:54:41.402Z,12.43
2019-01-19T06:57:08.795Z,11.67
2019-01-19T06:59:36.327Z,11.30
2019-01-19T07:02:03.889Z,11.33
2019-01-19T07:04:31.343Z,11.77
2019-01-19T07:07:02.744Z,11.27
2019-01-19T07:09:28.440Z,11.23
2019-01-19T07:11:56.183Z,10.93
2019-01-19T07:14:23.737Z,10.73
2019-01-19T07:16:51.176Z,10.83
2019-01-19T07:19:18.908Z,10.47
2019-01-19T07:21:46.425Z,10.37
2019-01-19T07:24:14.051Z,9.47
2019-01-19T07:26:41.371Z,10.20
2019-01-19T07:29:08.918Z,9.00
2019-01-19T07:31:36.449Z,10.70
2019-01-19T07:34:04.137Z,9.30
2019-01-19T07:36:31.736Z,8.57
2019-01-19T07:38:59.173Z,9.43
2019-01-19T07:41:26.547Z,9.07
2019-01-19T07:43:54.083Z,7.87
2019-01-19T07:46:22.032Z,9.50
2019-01-19T07:48:49.568Z,8.87
2019-01-19T07:51:17.012Z,8.47
2019-01-19T07:53:44.331Z,9.30
2019-01-19T07:56:11.939Z,9.03
2019-01-19T07:58:39.464Z,8.13
2019-01-19T08:01:06.989Z,7.83
2019-01-19T08:03:34.588Z,8.53
2019-01-19T08:06:02.190Z,8.07
2019-01-19T08:08:29.680Z,7.77
2019-01-19T08:10:57.279Z,8.13
2019-01-19T08:13:24.772Z,7.73
2019-01-19T08:15:52.094Z,7.60
2019-01-19T08:18:19.501Z,7.73
2019-01-19T08:20:47.046Z,7.80
2019-01-19T08:23:14.421Z,7.27
2019-01-19T08:25:41.947Z,8.00
2019-01-19T08:28:09.526Z,8.00
2019-01-19T08:30:37.069Z,6.47
2019-01-19T08:33:56.464Z,6.93
2019-01-19T08:36:24.336Z,6.70
2019-01-19T08:38:53.003Z,6.73
2019-01-19T08:41:20.581Z,6.47
2019-01-19T08:43:56.747Z,6.60
2019-01-19T08:46:24.198Z,6.87
2019-01-19T08:48:51.522Z,6.43
2019-01-19T08:51:19.162Z,5.90
2019-01-19T08:53:46.780Z,6.17
2019-01-19T08:56:14.295Z,6.60
2019-01-19T08:58:41.837Z,6.23
2019-01-19T09:01:09.451Z,5.97
2019-01-19T09:03:38.543Z,6.07
2019-01-19T09:06:06.056Z,6.17
2019-01-19T09:08:33.616Z,5.83
2019-01-19T09:11:01.075Z,6.37
2019-01-19T09:13:28.597Z,6.73
2019-01-19T09:16:20.601Z,5.40
2019-01-19T09:18:48.266Z,5.40
2019-01-19T09:21:15.940Z,5.13
2019-01-19T09:23:53.829Z,5.40
2019-01-19T09:26:23.163Z,5.20
2019-01-19T09:28:50.837Z,5.67
2019-01-19T09:31:18.733Z,5.60
2019-01-19T09:33:46.055Z,5.50
2019-01-19T09:36:13.690Z,4.97
2019-01-19T09:38:41.303Z,4.77
2019-01-19T09:41:09.845Z,5.17
2019-01-19T09:43:38.277Z,5.20
2019-01-19T09:46:06.617Z,4.63
2019-01-19T09:48:34.224Z,4.60
2019-01-19T09:51:02.768Z,4.57
2019-01-19T09:53:30.317Z,4.50
2019-01-19T09:55:58.392Z,4.80
2019-01-19T09:58:26.696Z,4.67
2019-01-19T10:00:54.640Z,4.33
2019-01-19T10:03:22.471Z,4.13
2019-01-19T10:05:50.011Z,4.47
2019-01-19T10:08:18.373Z,4.33
2019-01-19T10:10:46.289Z,4.17
2019-01-19T10:13:13.715Z,4.17
2019-01-19T10:15:41.262Z,3.37
2019-01-19T10:18:09.426Z,3.90
2019-01-19T10:20:36.945Z,4.00
2019-01-19T10:23:04.516Z,4.00
2019-01-19T10:25:32.087Z,3.70
2019-01-19T10:28:00.405Z,3.87
2019-01-19T10:30:28.690Z,4.13
2019-01-19T10:32:57.300Z,4.00
2019-01-19T10:35:27.620Z,4.00
2019-01-19T10:37:56.656Z,3.90
2019-01-19T10:40:24.952Z,3.73
2019-01-19T10:42:53.694Z,3.23
2019-01-19T10:45:23.453Z,3.50
2019-01-19T10:47:51.254Z,3.83
2019-01-19T10:50:20.224Z,3.90
2019-01-19T10:52:51.485Z,3.33
2019-01-19T10:55:19.308Z,3.27
2019-01-19T10:57:47.967Z,3.53
2019-01-19T11:00:27.019Z,3.30
2019-01-19T11:02:55.857Z,3.40
2019-01-19T11:05:23.834Z,3.17
2019-01-19T11:07:52.219Z,3.30
2019-01-19T11:10:21.432Z,3.23
2019-01-19T11:12:49.173Z,3.20
2019-01-19T11:15:17.777Z,3.40
2019-01-19T11:17:46.444Z,3.37
2019-01-19T11:20:17.879Z,3.20
2019-01-19T11:22:45.492Z,3.10
2019-01-19T11:25:12.836Z,2.80
2019-01-19T11:27:40.268Z,2.90
2019-01-19T11:30:11.893Z,2.90
2019-01-19T11:32:44.401Z,3.07
2019-01-19T11:35:10.365Z,2.83
2019-01-19T11:37:40.811Z,2.80
2019-01-19T11:40:11.714Z,3.27
2019-01-19T11:42:41.415Z,2.80
2019-01-19T11:45:12.231Z,3.50
2019-01-19T11:47:40.414Z,3.10
2019-01-19T11:50:08.830Z,3.00
2019-01-19T11:52:36.850Z,2.43
2019-01-19T11:55:05.426Z,2.57
2019-01-19T11:57:33.220Z,3.00
2019-01-19T12:00:00.710Z,3.10
2019-01-19T12:02:28.871Z,3.03
2019-01-19T12:04:58.186Z,2.67
2019-01-19T12:07:25.864Z,2.37
2019-01-19T12:09:53.632Z,3.00
2019-01-19T12:12:21.105Z,2.30
2019-01-19T12:14:48.671Z,2.60
2019-01-19T12:17:16.211Z,2.70
2019-01-19T12:19:43.812Z,2.70
2019-01-19T12:22:14.714Z,2.70
2019-01-19T12:24:44.432Z,2.50
2019-01-19T12:27:19.312Z,2.97
2019-01-19T12:29:48.993Z,2.77
2019-01-19T12:32:17.288Z,2.50
2019-01-19T12:34:47.001Z,2.50
2019-01-19T12:37:21.910Z,2.47
2019-01-19T12:39:51.651Z,2.90
2019-01-19T12:42:23.312Z,2.37
2019-01-19T12:44:51.108Z,2.40
2019-01-19T12:47:18.824Z,2.40
2019-01-19T12:49:46.431Z,3.00
2019-01-19T12:52:14.034Z,2.97
2019-01-19T12:54:41.603Z,2.80
2019-01-19T12:57:09.132Z,2.33
2019-01-19T12:59:36.721Z,2.60
2019-01-19T13:02:04.728Z,2.40
2019-01-19T13:04:32.324Z,2.63
2019-01-19T13:07:03.786Z,2.50
2019-01-19T13:09:41.309Z,2.37
2019-01-19T13:12:39.868Z,2.40
2019-01-19T13:15:51.592Z,2.90
2019-01-19T13:18:48.056Z,2.30
2019-01-19T13:21:57.452Z,2.67
2019-01-19T13:25:03.042Z,2.63
2019-01-19T13:28:19.552Z,2.60
2019-01-19T13:31:16.931Z,2.87
2019-01-19T13:34:38.077Z,2.70
2019-01-19T13:37:34.072Z,2.40
2019-01-19T13:40:18.780Z,2.30
2019-01-19T13:43:28.673Z,2.60
2019-01-19T13:46:33.606Z,2.33
2019-01-19T13:52:26.489Z,2.20
2019-01-19T13:55:39.132Z,2.30
2019-01-19T13:58:28.020Z,2.40
2019-01-19T14:01:32.494Z,2.57
2019-01-19T14:04:34.565Z,2.60
2019-01-19T14:07:45.896Z,2.60
2019-01-19T14:10:39.497Z,2.40
2019-01-19T14:13:28.548Z,2.40
2019-01-19T14:16:05.618Z,2.37
2019-01-19T14:19:10.086Z,2.70
2019-01-19T14:22:03.200Z,2.20
2019-01-19T14:25:21.596Z,2.63
2019-01-19T14:28:34.160Z,2.97
2019-01-19T14:31:52.919Z,2.30
2019-01-19T14:34:47.306Z,2.57
2019-01-19T14:37:38.640Z,2.40
2019-01-19T14:40:31.204Z,2.40
2019-01-19T14:43:54.196Z,2.37
2019-01-19T14:47:02.900Z,2.67
2019-01-19T14:50:00.237Z,2.60
2019-01-19T14:52:34.792Z,2.30
2019-01-19T14:55:30.205Z,2.50
2019-01-19T14:58:10.268Z,2.63
2019-01-19T15:01:06.628Z,2.70
2019-01-19T15:04:08.036Z,2.47
2019-01-19T15:11:00.468Z,3.17
2019-01-19T15:14:03.559Z,2.57
2019-01-19T15:17:25.577Z,2.70
2019-01-19T15:20:20.387Z,2.80
2019-01-19T15:23:28.943Z,2.67
2019-01-19T15:26:39.972Z,3.10
2019-01-19T15:29:34.709Z,3.00
2019-01-19T15:32:43.220Z,2.97
2019-01-19T15:35:41.070Z,2.87
2019-01-19T15:38:53.500Z,3.20
2019-01-19T15:42:29.839Z,3.40
2019-01-19T15:45:31.899Z,3.33
2019-01-19T15:48:21.297Z,17.73
2019-01-19T15:51:16.998Z,18.33
2019-01-19T15:53:53.508Z,18.33
2019-01-19T15:57:06.607Z,18.97
2019-01-19T16:00:01.883Z,17.80
2019-01-19T16:02:47.607Z,17.23
2019-01-19T16:05:29.381Z,17.53
2019-01-19T16:08:21.101Z,22.57
2019-01-19T16:11:09.100Z,24.73
2019-01-19T16:14:14.709Z,23.43
2019-01-19T16:16:54.453Z,37.80
2019-01-19T16:19:59.610Z,52.23
2019-01-19T16:23:26.548Z,65.03
2019-01-19T16:26:41.405Z,75.83
2019-01-19T16:29:45.616Z,71.50
2019-01-19T16:32:44.606Z,91.03
2019-01-19T16:35:49.734Z,85.27
2019-01-19T16:39:04.960Z,80.10
2019-01-19T16:41:52.348Z,78.50
2019-01-19T16:44:50.588Z,76.97
2019-01-19T16:47:42.956Z,77.57
2019-01-19T16:50:41.269Z,94.87
2019-01-19T16:53:23.267Z,95.63
2019-01-19T16:56:57.210Z,102.27
2019-01-19T16:59:48.512Z,103.87
2019-01-19T17:02:52.592Z,119.82
2019-01-19T17:05:56.392Z,103.63
2019-01-19T17:08:43.392Z,110.17
2019-01-19T17:11:58.987Z,94.50
2019-01-19T17:15:04.233Z,94.40
2019-01-19T17:18:26.951Z,91.00
2019-01-19T17:21:44.233Z,86.97
2019-01-19T17:24:36.078Z,83.90
2019-01-19T17:27:42.183Z,83.37
2019-01-19T17:30:58.321Z,80.37
2019-01-19T17:33:59.576Z,82.00
2019-01-19T17:36:44.725Z,77.57
2019-01-19T17:39:58.632Z,75.90
2019-01-19T17:43:20.049Z,77.07
2019-01-19T17:46:37.692Z,74.20
2019-01-19T17:49:31.600Z,72.33
2019-01-19T17:52:35.249Z,71.33
2019-01-19T17:55:59.098Z,70.00
2019-01-19T17:58:52.916Z,66.97
2019-01-19T18:01:44.816Z,68.17
2019-01-19T18:04:45.711Z,64.53
2019-01-19T18:07:41.895Z,64.50
2019-01-19T18:10:38.061Z,63.20
2019-01-19T18:13:27.438Z,60.03
2019-01-19T18:16:43.557Z,59.50
2019-01-19T18:19:58.968Z,57.67
2019-01-19T18:23:13.819Z,63.83
2019-01-19T18:26:16.475Z,64.85
2019-01-19T18:29:26.426Z,57.33
2019-01-19T18:32:23.010Z,68.90
2019-01-19T18:35:12.154Z,68.15
2019-01-19T18:38:10.773Z,68.20
2019-01-19T18:41:10.377Z,58.57
2019-01-19T18:44:11.767Z,55.60
2019-01-19T18:47:26.298Z,56.00
2019-01-19T18:50:38.021Z,53.30
2019-01-19T18:53:28.227Z,52.97
2019-01-19T18:56:20.121Z,50.67
2019-01-19T18:59:21.693Z,48.27
2019-01-19T19:02:01.410Z,47.67
2019-01-19T19:05:13.195Z,46.43
2019-01-19T19:08:06.961Z,44.87
2019-01-19T19:11:30.924Z,46.37
2019-01-19T19:14:43.822Z,44.10
2019-01-19T19:17:34.289Z,42.67
2019-01-19T19:20:32.090Z,40.23
2019-01-19T19:23:41.486Z,41.85
2019-01-19T19:26:56.376Z,40.10
2019-01-19T19:30:04.380Z,39.17
2019-01-19T19:33:14.005Z,37.40
2019-01-19T19:36:22.939Z,36.67
2019-01-19T19:39:11.481Z,36.53
2019-01-19T19:41:55.680Z,36.33
2019-01-19T19:45:29.007Z,34.63
2019-01-19T19:48:34.121Z,34.33
2019-01-19T19:51:40.765Z,33.47
2019-01-19T19:54:08.188Z,32.17
2019-01-19T19:56:34.732Z,33.60
2019-01-19T19:59:02.304Z,33.37
2019-01-19T20:01:29.795Z,31.53
2019-01-19T20:03:57.321Z,31.07
2019-01-19T20:06:24.868Z,31.77
2019-01-19T20:08:52.508Z,29.80
2019-01-19T20:11:20.056Z,31.60
2019-01-19T20:13:47.667Z,30.53
2019-01-19T20:16:15.075Z,29.27
2019-01-19T20:18:42.651Z,29.47
2019-01-19T20:21:10.200Z,30.47
2019-01-19T20:23:37.751Z,27.60
2019-01-19T20:26:05.376Z,27.47
2019-01-19T20:28:32.877Z,26.93
2019-01-19T20:31:00.427Z,27.07
2019-01-19T20:33:27.743Z,27.97
2019-01-19T20:35:55.280Z,27.07
2019-01-19T20:38:22.869Z,25.73
2019-01-19T20:40:50.616Z,26.07
2019-01-19T20:43:17.987Z,25.27
2019-01-19T20:45:45.795Z,26.07
2019-01-19T20:48:13.636Z,23.17
2019-01-19T20:50:41.276Z,23.60
2019-01-19T20:53:09.087Z,25.43
2019-01-19T20:55:36.776Z,23.90
2019-01-19T20:58:04.320Z,24.60
2019-01-19T21:00:31.989Z,23.90
2019-01-19T21:02:59.558Z,21.53
2019-01-19T21:05:27.211Z,23.13
2019-01-19T21:07:54.848Z,22.90
2019-01-19T21:10:22.505Z,21.90
2019-01-19T21:12:50.045Z,21.97
2019-01-19T21:15:17.844Z,22.30
2019-01-19T21:17:45.402Z,20.87
2019-01-19T21:20:14.753Z,20.87
2019-01-19T21:22:42.413Z,20.67
2019-01-19T21:25:10.283Z,20.67
2019-01-19T21:27:37.900Z,20.30
2019-01-19T21:30:06.471Z,20.47
2019-01-19T21:32:33.889Z,20.30
2019-01-19T21:35:01.434Z,20.07
2019-01-19T21:37:29.078Z,18.33
2019-01-19T21:39:56.662Z,19.43
2019-01-19T21:42:24.236Z,18.17
2019-01-19T21:44:51.704Z,18.03
2019-01-19T21:47:19.684Z,18.43
2019-01-19T21:49:47.401Z,18.37
2019-01-19T21:52:14.971Z,18.43
2019-01-19T21:54:43.235Z,17.07
2019-01-19T21:57:10.599Z,17.53
2019-01-19T21:59:40.400Z,16.33
2019-01-19T22:02:07.926Z,16.20
2019-01-19T22:04:35.896Z,16.93
2019-01-19T22:07:03.465Z,17.00
2019-01-19T22:09:30.981Z,16.23
2019-01-19T22:11:58.454Z,16.60
2019-01-19T22:14:26.052Z,16.40
2019-01-19T22:16:53.580Z,16.10
2019-01-19T22:19:21.133Z,16.30
2019-01-19T22:21:48.789Z,15.43
2019-01-19T22:24:16.369Z,15.93
2019-01-19T22:26:46.739Z,14.97
2019-01-19T22:29:16.562Z,15.83
2019-01-19T22:31:44.860Z,15.93
2019-01-19T22:34:15.159Z,15.07
2019-01-19T22:36:42.784Z,13.97
2019-01-19T22:39:10.270Z,14.07
2019-01-19T22:41:37.814Z,13.77
2019-01-19T22:44:05.659Z,14.27
2019-01-19T22:46:33.088Z,14.07
2019-01-19T22:49:00.571Z,13.83
2019-01-19T22:51:28.463Z,12.87
2019-01-19T22:53:56.172Z,14.00
2019-01-19T22:56:23.762Z,14.17
2019-01-19T22:58:51.371Z,13.43
2019-01-19T23:01:32.817Z,12.30
2019-01-19T23:04:00.636Z,13.33
2019-01-19T23:06:28.196Z,13.47
2019-01-19T23:08:55.525Z,12.77
2019-01-19T23:11:25.465Z,12.20
2019-01-19T23:13:54.664Z,12.80
2019-01-19T23:16:29.045Z,12.67
2019-01-19T23:18:58.072Z,11.77
2019-01-19T23:21:27.003Z,12.20
2019-01-19T23:39:19.028Z,11.90
2019-01-19T23:41:47.450Z,10.73
2019-01-19T23:44:16.437Z,10.67
2019-01-19T23:46:46.193Z,10.17
2019-01-19T23:49:15.525Z,11.40
2019-01-19T23:51:43.081Z,10.90
2019-01-19T23:54:10.594Z,10.00
2019-01-19T23:56:39.905Z,10.80
2019-01-19T23:59:10.186Z,9.70
